Time;durP1;ratioP1;P1;durP2;ratioP2;P2;SDS_P1;SDS_P2;PMS_P1;PMS_P2;Temp;Humidity;BMP_temperature;BMP_pressure;BME280_temperature;BME280_humidity;BME280_pressure;Samples;Min_cycle;Max_cycle;Signal;HPM_P1;HPM_P2
2021/12/26 00:00:19;;;;;;;6.18;1.98;;;;;;;-10.42;62.90;97592.16;5050079;28;20132;-68
2021/12/26 00:02:45;;;;;;;6.40;2.27;;;;;;;-10.42;62.68;97584.22;5011233;28;20091;-69
2021/12/26 00:05:13;;;;;;;7.20;2.30;;;;;;;-10.60;63.51;97597.91;5041015;28;20044;-69
2021/12/26 00:07:39;;;;;;;;;;;;;;;-10.60;63.74;97600.56;5049404;28;20519;-67
2021/12/26 00:10:07;;;;;;;6.93;2.20;;;;;;;-10.64;63.61;97588.75;5047208;28;20028;-68
2021/12/26 00:12:33;;;;;;;6.17;2.27;;;;;;;-10.68;64.35;97587.53;5048567;28;20484;-69
2021/12/26 00:14:59;;;;;;;9.60;2.23;;;;;;;-10.61;64.22;97596.28;5040260;28;20099;-69
2021/12/26 00:17:25;;;;;;;7.83;2.20;;;;;;;-10.61;64.17;97567.22;5042893;28;20042;-69
2021/12/26 00:19:51;;;;;;;8.73;2.50;;;;;;;-10.60;64.54;97586.56;5049218;28;20092;-68
2021/12/26 00:22:19;;;;;;;5.13;1.87;;;;;;;-10.62;64.54;97589.38;5035222;28;20551;-69
2021/12/26 00:24:46;;;;;;;5.65;2.22;;;;;;;-10.64;65.11;97587.94;5038657;28;20132;-69
2021/12/26 00:27:12;;;;;;;8.70;2.50;;;;;;;-10.60;65.05;97594.47;5044949;28;20041;-69
2021/12/26 00:29:38;;;;;;;8.80;2.37;;;;;;;-10.53;64.82;97582.13;5040757;28;20052;-70
2021/12/26 00:32:06;;;;;;;5.50;1.97;;;;;;;-10.55;64.92;97582.28;5032168;28;20103;-70
2021/12/26 00:34:32;;;;;;;7.33;2.40;;;;;;;-10.61;65.46;97598.94;5036786;28;20037;-70
2021/12/26 00:36:58;;;;;;;8.87;2.50;;;;;;;-10.54;65.21;97606.91;5047231;28;20051;-69
2021/12/26 00:39:25;;;;;;;7.87;2.70;;;;;;;-10.51;65.26;97581.94;5047352;28;20127;-68
2021/12/26 00:41:52;;;;;;;9.10;2.05;;;;;;;-10.54;65.54;97588.41;5035143;28;20037;-69
2021/12/26 00:44:20;;;;;;;6.40;2.10;;;;;;;-10.49;66.25;97585.19;5041993;28;20053;-69
2021/12/26 00:46:46;;;;;;;7.47;2.00;;;;;;;-10.47;66.19;97591.09;5038986;28;20385;-69
2021/12/26 00:49:12;;;;;;;7.23;2.23;;;;;;;-10.45;66.94;97597.00;5039511;28;20049;-68
2021/12/26 00:51:38;;;;;;;4.73;1.83;;;;;;;-10.45;67.34;97612.84;5040500;28;20416;-69
2021/12/26 00:54:04;;;;;;;6.00;1.97;;;;;;;-10.51;68.01;97609.16;5039670;28;20048;-70
2021/12/26 00:56:32;;;;;;;6.43;2.30;;;;;;;-10.38;67.89;97575.88;5039870;28;20045;-68
2021/12/26 00:58:58;;;;;;;;;;;;;;;-10.11;67.83;97590.88;5045716;28;20080;-69
2021/12/26 01:01:24;;;;;;;3.13;1.40;;;;;;;-10.11;67.71;97579.47;5052325;28;19928;-69
2021/12/26 01:03:50;;;;;;;4.80;1.93;;;;;;;-10.04;67.58;97577.69;5043894;28;20493;-70
2021/12/26 01:06:16;;;;;;;5.57;2.10;;;;;;;-10.05;68.02;97573.41;5045093;28;20045;-69
2021/12/26 01:08:47;;;;;;;4.57;1.83;;;;;;;-10.01;67.94;97544.72;5041520;28;20049;-69
2021/12/26 01:11:21;;;;;;;7.23;2.00;;;;;;;-10.01;68.42;97560.59;5047454;28;20477;-70
2021/12/26 01:13:51;;;;;;;5.13;1.97;;;;;;;-9.91;68.19;97566.34;5047840;28;20521;-69
2021/12/26 01:16:43;;;;;;;4.53;1.70;;;;;;;-9.76;67.60;97586.53;5051952;28;20076;-70
2021/12/26 01:19:14;;;;;;;;;;;;;;;-9.75;67.81;97574.94;5029149;28;20056;-69
2021/12/26 01:21:42;;;;;;;6.20;2.13;;;;;;;-9.78;67.88;97562.91;5020779;28;20566;-69
2021/12/26 01:24:15;;;;;;;4.50;1.90;;;;;;;-9.73;67.67;97555.22;5023871;28;20103;-69
2021/12/26 01:26:42;;;;;;;5.20;2.10;;;;;;;-9.74;67.97;97544.81;5040514;28;20506;-69
2021/12/26 01:29:11;;;;;;;4.00;1.50;;;;;;;-9.75;67.99;97546.66;5015711;28;20044;-70
2021/12/26 01:31:40;;;;;;;5.87;2.33;;;;;;;-9.67;67.25;97535.09;5041970;28;20037;-70
2021/12/26 01:34:25;;;;;;;6.13;2.20;;;;;;;-9.66;67.53;97542.00;5038992;28;20052;-69
2021/12/26 01:37:12;;;;;;;;;;;;;;;-9.71;67.80;97549.72;5044466;28;20475;-69
2021/12/26 01:40:08;;;;;;;5.30;1.90;;;;;;;-9.68;67.43;97551.94;5043138;28;19936;-69
2021/12/26 01:42:45;;;;;;;4.87;1.87;;;;;;;-9.68;67.48;97538.72;5044697;28;20448;-70
2021/12/26 01:45:25;;;;;;;4.70;2.10;;;;;;;-9.66;67.54;97549.13;5035317;28;20081;-70
2021/12/26 01:48:03;;;;;;;5.80;2.17;;;;;;;-9.56;67.32;97550.34;5025051;28;20132;-70
2021/12/26 01:50:33;;;;;;;6.57;2.23;;;;;;;-9.63;67.63;97557.47;5049289;28;20063;-70
2021/12/26 01:52:59;;;;;;;6.82;2.15;;;;;;;-9.61;67.60;97544.03;5048966;28;20041;-70
2021/12/26 01:58:05;;;;;;;7.27;2.47;;;;;;;-9.54;67.22;97542.22;5034780;28;20409;-70
2021/12/26 02:00:33;;;;;;;6.68;2.78;;;;;;;-9.50;67.30;97543.47;5053399;28;20633;-68
2021/12/26 02:03:00;;;;;;;4.50;1.90;;;;;;;-9.54;67.38;97545.69;5041866;28;20094;-68
2021/12/26 02:05:26;;;;;;;6.32;2.00;;;;;;;-9.54;67.92;97536.94;5045987;28;20056;-68
2021/12/26 02:07:59;;;;;;;4.57;1.60;;;;;;;-9.47;67.98;97537.75;5050629;28;20529;-68
2021/12/26 02:10:25;;;;;;;6.20;2.27;;;;;;;-9.53;68.17;97541.22;5049419;28;20127;-68
2021/12/26 02:12:51;;;;;;;6.20;2.23;;;;;;;-9.41;67.96;97533.50;5048925;28;20057;-67
2021/12/26 02:15:17;;;;;;;6.70;2.30;;;;;;;-9.38;68.19;97556.09;5034315;28;20036;-68
2021/12/26 02:17:56;;;;;;;4.97;1.67;;;;;;;-9.41;67.83;97523.72;5051790;28;20041;-67
2021/12/26 02:21:04;;;;;;;6.57;2.20;;;;;;;-9.42;68.22;97534.50;5049020;28;20845;-68
2021/12/26 02:23:18;;;;;;;7.27;2.30;;;;;;;-9.47;68.76;97560.78;5051971;28;20099;-68
2021/12/26 02:28:11;;;;;;;11.45;2.47;;;;;;;-9.29;68.22;97541.66;5048778;28;20540;-68
2021/12/26 02:30:37;;;;;;;8.23;1.87;;;;;;;-9.28;68.26;97524.78;5049760;28;20091;-66
2021/12/26 02:33:07;;;;;;;6.73;2.33;;;;;;;-9.25;68.21;97508.47;5051666;28;20072;-67
2021/12/26 02:35:35;;;;;;;6.43;2.20;;;;;;;-9.23;68.08;97530.25;5055429;28;20124;-67
2021/12/26 02:38:01;;;;;;;6.57;2.10;;;;;;;-9.29;68.44;97515.16;5034888;28;20144;-68
2021/12/26 02:40:28;;;;;;;9.43;2.53;;;;;;;-9.27;68.39;97511.31;5025186;28;20095;-68
2021/12/26 02:42:54;;;;;;;5.03;1.97;;;;;;;-9.28;68.44;97538.81;5031630;28;20037;-68
2021/12/26 02:45:21;;;;;;;4.88;1.85;;;;;;;-9.30;68.64;97550.59;5042515;28;20049;-68
2021/12/26 02:47:49;;;;;;;5.70;1.97;;;;;;;-9.36;68.57;97522.31;5042127;28;20041;-68
2021/12/26 02:50:20;;;;;;;7.13;2.17;;;;;;;-9.43;69.13;97524.94;5030819;28;20056;-68
2021/12/26 02:52:49;;;;;;;6.10;2.10;;;;;;;-9.46;69.43;97522.69;5038496;28;20052;-69
2021/12/26 02:55:18;;;;;;;6.90;1.77;;;;;;;-9.45;69.70;97513.75;5048006;28;20422;-69
2021/12/26 02:57:46;;;;;;;8.47;2.47;;;;;;;-9.37;68.96;97512.75;5029429;28;20048;-69
2021/12/26 03:00:15;;;;;;;6.43;2.20;;;;;;;-9.40;69.28;97511.28;5047076;28;20480;-67
2021/12/26 03:02:42;;;;;;;9.40;2.40;;;;;;;-9.42;69.19;97527.41;5048508;28;20139;-67
2021/12/26 03:05:09;;;;;;;4.05;1.80;;;;;;;-9.42;69.55;97515.97;5042276;28;20045;-68
2021/12/26 03:07:35;;;;;;;6.40;2.13;;;;;;;-9.44;69.67;97515.38;5044690;28;20497;-68
2021/12/26 03:10:04;;;;;;;6.87;1.97;;;;;;;-9.56;69.52;97486.84;5051802;28;20048;-68
2021/12/26 03:12:32;;;;;;;6.53;1.90;;;;;;;-9.45;69.86;97503.97;5036024;28;20068;-68
2021/12/26 03:14:58;;;;;;;4.50;1.60;;;;;;;-9.39;69.62;97507.63;5050919;28;20037;-68
2021/12/26 03:17:24;;;;;;;6.63;2.20;;;;;;;-9.43;69.98;97493.19;5043253;28;20045;-68
2021/12/26 03:19:51;;;;;;;4.13;1.73;;;;;;;-9.44;70.06;97487.09;5026133;28;20046;-69
2021/12/26 03:22:18;;;;;;;5.05;1.80;;;;;;;-9.37;70.29;97488.91;5037040;28;20045;-68
2021/12/26 03:24:44;;;;;;;6.17;1.60;;;;;;;-9.32;70.07;97503.16;5040845;28;20049;-68
2021/12/26 03:27:12;;;;;;;6.57;2.20;;;;;;;-9.32;70.22;97515.59;5039654;28;20036;-68
2021/12/26 03:29:38;;;;;;;5.33;1.93;;;;;;;-9.42;70.07;97506.22;5017880;28;20040;-68
2021/12/26 03:32:11;;;;;;;6.03;2.30;;;;;;;-9.36;70.20;97493.19;5043870;28;20056;-68
2021/12/26 03:34:44;;;;;;;7.27;2.10;;;;;;;-9.34;70.33;97478.75;5040824;28;20044;-69
2021/12/26 03:37:10;;;;;;;5.30;1.97;;;;;;;-9.29;69.99;97504.59;5037194;28;20044;-69
2021/12/26 03:39:36;;;;;;;7.27;2.20;;;;;;;-9.37;70.44;97480.97;5056371;28;20041;-69
2021/12/26 03:42:04;;;;;;;5.90;2.10;;;;;;;-9.29;70.09;97455.09;5048368;28;20540;-69
2021/12/26 03:44:32;;;;;;;7.78;2.25;;;;;;;-9.19;69.94;97467.13;5027007;28;20398;-67
2021/12/26 03:46:59;;;;;;;6.47;2.43;;;;;;;-9.27;70.28;97518.47;5045477;28;20040;-69
2021/12/26 03:49:26;;;;;;;6.33;2.20;;;;;;;-9.30;70.38;97474.66;5051891;28;20060;-69
2021/12/26 03:51:52;;;;;;;6.03;2.22;;;;;;;-9.25;70.16;97468.75;5020798;28;20065;-69
2021/12/26 03:54:18;;;;;;;6.83;2.00;;;;;;;-9.21;70.36;97472.63;5042049;28;20102;-69
2021/12/26 03:56:45;;;;;;;9.13;2.27;;;;;;;-9.34;70.84;97478.75;5046068;28;20045;-68
2021/12/26 03:59:15;;;;;;;7.93;2.17;;;;;;;-9.19;70.19;97461.84;5039964;28;20060;-68
2021/12/26 04:01:42;;;;;;;8.43;2.13;;;;;;;-9.22;70.48;97465.69;5037710;28;20049;-68
2021/12/26 04:04:08;;;;;;;4.90;2.25;;;;;;;-9.19;69.98;97467.13;5039935;28;20084;-68
2021/12/26 04:06:34;;;;;;;7.30;2.30;;;;;;;-9.09;69.97;97456.91;5050413;28;20048;-69
2021/12/26 04:09:00;;;;;;;5.77;2.17;;;;;;;-9.09;70.02;97478.09;5041912;28;20052;-67
2021/12/26 04:11:26;;;;;;;5.27;2.03;;;;;;;-9.26;70.07;97475.88;5045094;28;20527;-68
2021/12/26 04:13:52;;;;;;;7.80;2.60;;;;;;;-9.16;70.44;97477.31;5045372;28;20090;-67
2021/12/26 04:16:18;;;;;;;6.23;2.27;;;;;;;-9.22;70.51;97480.75;5051713;28;20029;-68
2021/12/26 04:18:47;;;;;;;5.55;2.05;;;;;;;-9.22;70.64;97478.94;5043284;28;20037;-68
2021/12/26 04:21:13;;;;;;;7.10;2.00;;;;;;;-9.30;70.74;97484.41;5044886;28;20608;-71
2021/12/26 04:23:53;;;;;;;5.63;2.03;;;;;;;-9.42;71.39;97479.75;5048988;28;20053;-70
2021/12/26 04:26:19;;;;;;;11.13;2.50;;;;;;;-9.28;71.12;97472.63;5030415;28;20131;-70
2021/12/26 04:28:45;;;;;;;8.30;2.20;;;;;;;-9.15;70.57;97478.94;5043979;28;20045;-69
2021/12/26 04:31:11;;;;;;;7.03;2.17;;;;;;;-9.16;70.54;97478.09;5047032;28;20612;-70
2021/12/26 04:33:37;;;;;;;6.00;2.07;;;;;;;-9.14;70.37;97480.56;5045891;28;20050;-69
2021/12/26 04:36:06;;;;;;;7.07;1.87;;;;;;;-9.33;70.57;97434.53;5052006;28;20041;-71
2021/12/26 04:38:32;;;;;;;8.50;2.73;;;;;;;-9.12;70.19;97479.34;5051742;28;20064;-70
2021/12/26 04:40:58;;;;;;;5.83;2.27;;;;;;;-9.20;70.42;97498.06;5055063;28;20094;-70
2021/12/26 04:43:39;;;;;;;5.03;2.10;;;;;;;-9.32;70.75;97444.09;5043198;28;20044;-69
2021/12/26 04:46:24;;;;;;;5.10;2.00;;;;;;;-9.26;70.75;97490.97;5048730;28;20045;-69
2021/12/26 04:49:02;;;;;;;7.80;2.60;;;;;;;-9.18;70.42;97429.03;5048311;28;20418;-69
2021/12/26 04:51:30;;;;;;;3.73;1.63;;;;;;;-9.15;70.03;97457.75;5051383;28;20048;-69
2021/12/26 04:54:01;;;;;;;8.00;1.90;;;;;;;-9.05;70.14;97462.63;5028061;28;20752;-69
2021/12/26 04:56:27;;;;;;;4.87;1.80;;;;;;;-9.07;69.86;97470.75;5037005;28;20048;-69
2021/12/26 04:58:53;;;;;;;6.10;2.03;;;;;;;-9.13;70.12;97474.25;5033520;28;20450;-69
2021/12/26 05:01:19;;;;;;;6.30;2.33;;;;;;;-9.13;70.03;97472.44;5049385;28;20049;-69
2021/12/26 05:03:45;;;;;;;6.40;2.23;;;;;;;-9.06;69.59;97484.84;5054620;28;20056;-69
2021/12/26 05:06:11;;;;;;;5.97;2.20;;;;;;;-9.00;69.58;97481.34;5030024;28;20045;-70
2021/12/26 05:08:38;;;;;;;6.17;2.10;;;;;;;-9.09;69.89;97506.44;5040697;28;20518;-70
2021/12/26 05:11:04;;;;;;;7.80;2.20;;;;;;;-9.06;69.52;97488.28;5045651;28;20501;-70
2021/12/26 05:13:30;;;;;;;6.93;2.50;;;;;;;-9.00;69.64;97481.34;5045759;28;20048;-69
2021/12/26 05:15:56;;;;;;;9.13;2.73;;;;;;;-8.99;69.19;97482.97;5033408;28;20447;-70
2021/12/26 05:18:22;;;;;;;7.43;2.17;;;;;;;-9.08;69.30;97502.78;5051967;28;20059;-70
2021/12/26 05:20:56;;;;;;;10.83;2.90;;;;;;;-9.09;69.33;97503.78;5046306;28;20041;-70
2021/12/26 05:23:22;;;;;;;6.57;2.47;;;;;;;-9.15;69.30;97490.31;5056369;28;20059;-70
2021/12/26 05:25:50;;;;;;;8.43;2.23;;;;;;;-9.19;69.72;97491.75;5041195;28;20052;-70
2021/12/26 05:28:16;;;;;;;;;;;;;;;-9.12;69.67;97502.34;5044503;28;20322;-70
2021/12/26 05:30:43;;;;;;;6.40;2.05;;;;;;;-9.13;69.26;97475.06;5044256;28;20383;-70
2021/12/26 05:33:23;;;;;;;11.13;2.47;;;;;;;-9.15;69.06;97524.75;5031048;28;20072;-71
2021/12/26 05:35:52;;;;;;;9.00;2.83;;;;;;;-9.14;69.14;97499.91;5041457;28;20075;-70
2021/12/26 05:38:19;;;;;;;7.35;2.38;;;;;;;-9.15;69.18;97487.69;5054727;28;20056;-70
2021/12/26 05:40:47;;;;;;;5.37;2.13;;;;;;;-9.15;69.38;97490.31;5051327;28;20048;-70
2021/12/26 05:43:15;;;;;;;12.03;2.90;;;;;;;-9.09;69.12;97490.56;5045405;28;20808;-70
2021/12/26 05:45:41;;;;;;;5.90;2.17;;;;;;;-9.17;69.33;97467.75;5042561;28;20429;-69
2021/12/26 05:48:28;;;;;;;5.50;2.17;;;;;;;-9.16;69.37;97511.72;5046433;28;20045;-69
2021/12/26 05:50:54;;;;;;;7.73;2.73;;;;;;;-9.13;69.48;97475.06;5035431;28;20052;-70
2021/12/26 05:53:38;;;;;;;8.73;2.80;;;;;;;-9.14;69.40;97491.94;5047284;28;20063;-70
2021/12/26 05:56:04;;;;;;;7.40;2.73;;;;;;;-9.15;69.47;97490.31;5038039;28;20041;-70
2021/12/26 05:58:33;;;;;;;7.55;2.35;;;;;;;-9.24;69.80;97488.09;5054156;28;20050;-71
2021/12/26 06:00:59;;;;;;;;;;;;;;;-9.12;69.44;97486.47;5036275;28;20041;-71
2021/12/26 06:03:25;;;;;;;6.83;2.40;;;;;;;-9.15;69.67;97500.13;5039473;28;19931;-71
2021/12/26 06:05:51;;;;;;;11.30;2.70;;;;;;;-9.16;69.87;97479.97;5050965;28;20049;-70
2021/12/26 06:08:21;;;;;;;5.77;2.20;;;;;;;-9.12;69.79;97476.69;5058768;28;20139;-70
2021/12/26 06:10:48;;;;;;;6.90;2.50;;;;;;;-9.03;69.54;97450.81;5041613;28;20562;-70
2021/12/26 06:13:14;;;;;;;7.20;2.30;;;;;;;-9.03;69.81;97485.25;5046568;28;20045;-70
2021/12/26 06:15:41;;;;;;;8.07;2.13;;;;;;;-9.09;70.15;97464.06;5037397;28;20422;-70
2021/12/26 06:18:07;;;;;;;8.35;2.42;;;;;;;-9.09;70.31;97491.34;5029126;28;20516;-71
2021/12/26 06:20:52;;;;;;;7.53;2.33;;;;;;;-9.08;70.11;97458.53;5038332;28;20298;-72
2021/12/26 06:23:50;;;;;;;8.40;2.67;;;;;;;-8.95;69.84;97486.03;5039839;28;20254;-70
2021/12/26 06:26:49;;;;;;;6.13;2.27;;;;;;;-8.87;69.48;97484.00;5044238;28;20441;-70
2021/12/26 06:29:37;;;;;;;7.47;2.43;;;;;;;-8.92;69.70;97475.03;5026109;28;20048;-69
2021/12/26 06:32:23;;;;;;;15.10;2.50;;;;;;;-8.79;69.48;97482.97;5047781;28;20132;-70
2021/12/26 06:35:15;;;;;;;8.63;3.07;;;;;;;-8.76;69.17;97461.34;5049120;28;20223;-70
2021/12/26 06:38:17;;;;;;;7.97;2.67;;;;;;;-8.84;69.55;97448.34;5010996;28;20045;-70
2021/12/26 06:41:07;;;;;;;7.97;3.20;;;;;;;-8.78;69.38;97460.75;5008116;28;20045;-71
2021/12/26 06:44:03;;;;;;;6.20;2.45;;;;;;;-8.77;69.36;97472.97;5037625;28;20071;-72
2021/12/26 06:46:58;;;;;;;6.53;1.80;;;;;;;-8.76;69.44;97461.34;5042915;28;20053;-70
2021/12/26 06:49:26;;;;;;;9.23;2.63;;;;;;;-8.79;69.33;97447.72;5044222;28;20194;-69
2021/12/26 06:51:52;;;;;;;7.17;2.53;;;;;;;-8.87;69.98;97467.31;5028133;28;20049;-69
2021/12/26 06:54:18;;;;;;;11.40;3.10;;;;;;;-8.79;69.86;97448.50;5048165;28;20568;-70
2021/12/26 06:56:44;;;;;;;8.77;2.90;;;;;;;-8.74;70.00;97467.28;5026727;28;20068;-69
2021/12/26 06:59:10;;;;;;;9.20;3.07;;;;;;;-8.71;69.93;97471.31;5035500;28;20546;-70
2021/12/26 07:01:37;;;;;;;8.90;3.10;;;;;;;-8.67;70.33;97477.03;5033644;28;20037;-66
2021/12/26 07:04:05;;;;;;;8.70;3.10;;;;;;;-8.63;69.88;97462.34;5044430;28;20071;-66
2021/12/26 07:06:33;;;;;;;14.33;3.30;;;;;;;-8.64;69.98;97487.22;5048175;28;20758;-66
2021/12/26 07:09:06;;;;;;;8.13;2.87;;;;;;;-8.61;70.17;97458.47;5039627;28;20523;-67
2021/12/26 07:11:32;;;;;;;9.87;2.67;;;;;;;-8.62;70.40;97456.84;5041740;28;20053;-67
2021/12/26 07:13:58;;;;;;;11.03;2.80;;;;;;;-8.56;70.17;97477.19;5035818;28;20144;-68
2021/12/26 07:16:27;;;;;;;8.13;2.70;;;;;;;-8.65;70.50;97462.56;5042059;28;20080;-68
2021/12/26 07:18:53;;;;;;;6.23;2.13;;;;;;;-8.57;70.81;97462.31;5040309;28;20180;-68
2021/12/26 07:21:25;;;;;;;8.77;2.60;;;;;;;-8.63;70.81;97462.34;5026858;28;20064;-66
2021/12/26 07:23:59;;;;;;;7.00;2.50;;;;;;;-8.73;70.84;97454.81;5036127;28;20040;-66
2021/12/26 07:26:25;;;;;;;10.52;2.53;;;;;;;-8.56;70.82;97479.06;5045008;28;20045;-72
2021/12/26 07:28:53;;;;;;;6.07;2.40;;;;;;;-8.61;70.38;97449.69;5041782;28;20132;-71
2021/12/26 07:31:26;;;;;;;8.80;2.57;;;;;;;-8.44;70.49;97472.03;5024137;28;20427;-71
2021/12/26 07:33:59;;;;;;;9.10;2.70;;;;;;;-8.47;70.32;97437.19;5044301;28;20045;-70
2021/12/26 07:36:25;;;;;;;8.77;2.67;;;;;;;-8.48;70.57;97438.22;5046150;28;20547;-71
2021/12/26 07:39:16;;;;;;;8.13;1.97;;;;;;;-8.46;70.58;97450.22;5042254;28;20041;-72
2021/12/26 07:41:42;;;;;;;7.93;2.60;;;;;;;-8.52;70.92;97484.72;5048425;28;20115;-74
2021/12/26 07:44:28;;;;;;;7.67;2.40;;;;;;;-8.45;71.17;97443.09;5035805;28;20049;-66
2021/12/26 07:47:14;;;;;;;8.40;2.53;;;;;;;-8.39;70.60;97468.75;5050104;28;20131;-67
2021/12/26 07:49:41;;;;;;;6.40;2.30;;;;;;;-8.44;70.44;97457.97;5043035;28;20549;-66
2021/12/26 07:52:47;;;;;;;6.57;2.27;;;;;;;-8.56;71.07;97426.84;5029456;28;20086;-66
2021/12/26 07:55:33;;;;;;;6.13;2.00;;;;;;;-8.46;71.20;97458.16;5017236;28;20132;-67
2021/12/26 07:58:18;;;;;;;9.03;2.77;;;;;;;-8.50;71.13;97419.09;5038701;28;20129;-67
2021/12/26 08:01:02;;;;;;;6.80;2.37;;;;;;;-8.45;70.90;97438.59;5043624;28;20045;-68
2021/12/26 08:03:51;;;;;;;5.43;1.90;;;;;;;-8.51;71.09;97433.34;5041462;28;20046;-68
2021/12/26 08:06:36;;;;;;;9.53;2.10;;;;;;;-8.38;71.21;97443.88;5043741;28;20039;-69
2021/12/26 08:09:03;;;;;;;8.43;2.60;;;;;;;-8.36;71.03;97414.50;5044876;28;20041;-68
2021/12/26 08:11:31;;;;;;;9.95;2.47;;;;;;;-8.47;71.62;97421.28;5050356;28;20428;-69
2021/12/26 08:13:58;;;;;;;10.53;2.40;;;;;;;-8.44;71.44;97412.91;5027390;28;20044;-67
2021/12/26 08:16:24;;;;;;;10.27;2.70;;;;;;;-8.38;71.26;97432.47;5041101;28;20053;-68
2021/12/26 08:18:50;;;;;;;7.27;2.60;;;;;;;-8.35;71.20;97432.88;5016212;28;20037;-67
2021/12/26 08:21:16;;;;;;;8.37;2.70;;;;;;;-8.33;71.55;97404.28;5040614;28;20049;-69
2021/12/26 08:23:42;;;;;;;6.80;2.60;;;;;;;-8.34;71.52;97431.00;5031938;28;20103;-67
2021/12/26 08:26:08;;;;;;;8.90;2.53;;;;;;;-8.29;71.27;97424.06;5036169;28;20760;-68
2021/12/26 08:28:36;;;;;;;7.37;2.27;;;;;;;-8.27;70.78;97414.03;5040266;28;20061;-68
2021/12/26 08:31:02;;;;;;;8.57;2.50;;;;;;;-8.17;71.08;97380.97;5039389;28;20041;-68
2021/12/26 08:33:31;;;;;;;10.73;2.80;;;;;;;-8.23;70.54;97393.22;5038395;28;20053;-68
2021/12/26 08:35:58;;;;;;;6.13;2.53;;;;;;;-8.20;70.11;97403.41;5037146;28;20498;-67
2021/12/26 08:38:25;;;;;;;6.20;2.33;;;;;;;-8.23;70.03;97406.50;5050907;28;20045;-67
2021/12/26 08:40:53;;;;;;;9.50;3.13;;;;;;;-8.17;69.77;97395.03;5042153;28;20082;-67
2021/12/26 08:43:20;;;;;;;6.50;2.40;;;;;;;-8.11;69.79;97388.06;5043044;28;20056;-67
2021/12/26 08:45:49;;;;;;;7.18;2.45;;;;;;;-8.07;69.55;97389.25;5036928;28;20459;-68
2021/12/26 08:48:15;;;;;;;7.43;1.73;;;;;;;-8.00;69.50;97381.25;5042181;28;20144;-68
2021/12/26 08:50:41;;;;;;;6.67;2.30;;;;;;;-8.05;69.11;97389.84;5037448;28;20461;-69
2021/12/26 08:53:08;;;;;;;11.60;2.83;;;;;;;-8.00;69.27;97398.00;5034107;28;20051;-65
2021/12/26 08:55:34;;;;;;;8.27;2.57;;;;;;;-8.00;69.96;97395.34;5040703;28;20042;-67
2021/12/26 08:58:01;;;;;;;6.80;2.60;;;;;;;-8.04;69.40;97380.06;5043775;28;20354;-68
2021/12/26 09:00:29;;;;;;;13.13;2.95;;;;;;;-8.04;69.95;97380.88;5028882;28;20690;-66
2021/12/26 09:02:57;;;;;;;13.20;2.90;;;;;;;-8.00;69.96;97375.94;5038314;28;20444;-67
2021/12/26 09:05:23;;;;;;;8.73;2.53;;;;;;;-7.97;69.91;97367.56;5043438;28;20413;-68
2021/12/26 09:07:49;;;;;;;6.60;2.20;;;;;;;-7.95;70.26;97362.88;5048981;28;20051;-68
2021/12/26 09:10:15;;;;;;;9.17;2.70;;;;;;;-7.97;70.74;97380.81;5039890;28;20050;-69
2021/12/26 09:12:41;;;;;;;6.77;2.50;;;;;;;-7.97;70.85;97384.28;5045171;28;20045;-68
2021/12/26 09:15:09;;;;;;;11.37;2.90;;;;;;;-7.90;70.68;97364.84;5043514;28;20045;-68
2021/12/26 09:17:36;;;;;;;9.33;2.73;;;;;;;-7.86;70.69;97366.06;5038492;28;20056;-68
2021/12/26 09:20:06;;;;;;;8.47;2.37;;;;;;;-7.83;70.24;97378.91;5045374;28;20042;-68
2021/12/26 09:22:32;;;;;;;9.93;2.90;;;;;;;-7.89;70.20;97380.56;5039417;28;20055;-67
2021/12/26 09:24:58;;;;;;;12.90;2.80;;;;;;;-7.79;70.34;97366.81;5041883;28;20041;-75
2021/12/26 09:27:24;;;;;;;7.10;2.47;;;;;;;-7.76;70.23;97339.84;5043493;28;20568;-66
2021/12/26 09:29:50;;;;;;;7.57;2.37;;;;;;;-7.78;70.54;97387.03;5044416;28;20044;-65
2021/12/26 09:32:16;;;;;;;9.33;3.00;;;;;;;-7.74;70.50;97350.25;5047112;28;20702;-65
2021/12/26 09:34:42;;;;;;;9.70;2.90;;;;;;;-7.75;70.43;97352.06;5052825;28;20044;-65
2021/12/26 09:37:14;;;;;;;14.10;3.07;;;;;;;-7.81;70.28;97315.81;5043756;28;20045;-63
2021/12/26 09:39:40;;;;;;;11.30;3.07;;;;;;;-7.77;70.56;97343.53;5044642;28;20045;-66
2021/12/26 09:42:07;;;;;;;7.30;2.60;;;;;;;-7.79;69.98;97350.91;5050395;28;20428;-66
2021/12/26 09:44:34;;;;;;;7.93;2.88;;;;;;;-7.83;70.30;97355.03;5046262;28;20071;-66
2021/12/26 09:47:00;;;;;;;9.77;3.17;;;;;;;-7.79;69.89;97352.75;5039204;28;20512;-66
2021/12/26 09:49:26;;;;;;;5.97;2.43;;;;;;;-7.74;69.73;97327.16;5048201;28;20466;-67
2021/12/26 09:51:52;;;;;;;19.73;3.63;;;;;;;-7.77;69.98;97363.97;5051528;28;20052;-67
2021/12/26 09:54:20;;;;;;;7.57;2.27;;;;;;;-7.82;70.02;97298.25;5034335;28;20071;-66
2021/12/26 09:56:46;;;;;;;8.18;2.58;;;;;;;-7.69;69.90;97326.53;5042263;28;20065;-67
2021/12/26 09:59:16;;;;;;;9.17;2.80;;;;;;;-7.63;69.54;97333.63;5042103;28;20059;-67
2021/12/26 10:01:43;;;;;;;8.20;2.40;;;;;;;-7.62;69.69;97323.81;5052004;28;20094;-67
2021/12/26 10:04:17;;;;;;;9.20;2.63;;;;;;;-7.60;69.74;97330.53;5040476;28;20559;-67
2021/12/26 10:06:44;;;;;;;8.20;2.37;;;;;;;-7.59;69.44;97316.22;5040857;28;20051;-67
2021/12/26 10:09:11;;;;;;;8.87;2.83;;;;;;;-7.74;69.36;97305.13;5033695;28;20487;-67
2021/12/26 10:11:41;;;;;;;9.18;2.50;;;;;;;-7.63;69.79;97314.22;5032582;28;20045;-67
2021/12/26 10:14:09;;;;;;;8.80;2.47;;;;;;;-7.55;70.12;97284.75;5043112;28;20049;-65
2021/12/26 10:16:39;;;;;;;9.00;3.03;;;;;;;-7.43;70.23;97295.47;5041347;28;20041;-67
2021/12/26 10:19:06;;;;;;;10.67;2.70;;;;;;;-7.50;70.35;97294.69;5053196;28;20049;-67
2021/12/26 10:21:35;;;;;;;8.80;2.67;;;;;;;-7.50;70.08;97289.38;5035872;28;20040;-67
2021/12/26 10:24:05;;;;;;;8.60;3.07;;;;;;;-7.49;70.39;97283.88;5035265;28;20076;-67
2021/12/26 10:26:35;;;;;;;8.77;2.27;;;;;;;-7.52;70.37;97304.72;5035861;28;20072;-67
2021/12/26 10:29:15;;;;;;;6.87;2.67;;;;;;;-7.47;70.26;97289.75;5038869;28;20068;-65
2021/12/26 10:31:50;;;;;;;9.63;2.90;;;;;;;-7.45;70.27;97277.06;5036488;28;20568;-66
2021/12/26 10:34:19;;;;;;;10.63;2.80;;;;;;;-7.47;70.40;97288.97;5050306;28;20045;-68
2021/12/26 10:36:48;;;;;;;8.90;2.63;;;;;;;-7.57;70.30;97268.22;5040097;28;20489;-67
2021/12/26 10:39:17;;;;;;;8.43;2.60;;;;;;;-7.50;70.40;97278.75;5051182;28;20156;-66
2021/12/26 10:41:46;;;;;;;10.00;3.23;;;;;;;-7.45;70.33;97279.72;5047161;28;20053;-67
2021/12/26 10:44:26;;;;;;;7.60;2.60;;;;;;;-7.44;70.22;97307.91;5047830;28;20051;-65
2021/12/26 10:46:58;;;;;;;7.23;2.70;;;;;;;-7.49;70.29;97267.94;5042299;28;20524;-67
2021/12/26 10:49:37;;;;;;;9.93;2.57;;;;;;;-7.39;70.15;97256.00;5040712;28;20045;-67
2021/12/26 10:52:30;;;;;;;8.10;2.70;;;;;;;-7.84;70.58;97204.81;5034670;28;20049;-68
2021/12/26 10:55:02;;;;;;;8.43;2.83;;;;;;;-7.40;70.53;97279.06;5045240;28;20183;-68
2021/12/26 10:57:31;;;;;;;7.20;2.47;;;;;;;-7.45;70.88;97244.41;5044220;28;20097;-66
2021/12/26 11:00:06;;;;;;;10.43;2.97;;;;;;;-7.39;71.10;97242.72;5041598;28;20046;-68
2021/12/26 11:02:34;;;;;;;7.93;2.87;;;;;;;-7.39;70.88;97267.41;5033282;28;20128;-68
2021/12/26 11:05:05;;;;;;;9.53;2.80;;;;;;;-7.39;70.74;97266.63;5012013;28;20053;-66
2021/12/26 11:07:46;;;;;;;8.23;2.90;;;;;;;-7.41;70.68;97243.75;5041853;28;20510;-67
2021/12/26 11:10:15;;;;;;;10.80;3.23;;;;;;;-7.40;70.94;97252.53;5043295;28;20053;-66
2021/12/26 11:12:46;;;;;;;9.47;3.07;;;;;;;-7.39;70.85;97235.56;5048720;28;20041;-68
2021/12/26 11:15:15;;;;;;;12.00;3.17;;;;;;;-7.34;70.98;97264.09;5028307;28;20041;-66
2021/12/26 11:17:44;;;;;;;47.17;4.43;;;;;;;-7.36;71.41;97242.28;5042220;28;20051;-68
2021/12/26 11:20:32;;;;;;;11.93;3.10;;;;;;;-7.44;71.66;97243.38;5049966;28;20068;-66
2021/12/26 11:23:09;;;;;;;11.17;2.97;;;;;;;-7.37;71.55;97245.97;5042810;28;20049;-66
2021/12/26 11:25:36;;;;;;;11.95;3.40;;;;;;;-7.34;71.61;97242.88;5042168;28;20071;-67
2021/12/26 11:28:02;;;;;;;10.73;3.05;;;;;;;-7.34;71.47;97235.69;5047338;28;20060;-67
2021/12/26 11:30:30;;;;;;;9.97;3.03;;;;;;;-7.39;71.38;97227.59;5040310;28;20501;-67
2021/12/26 11:32:56;;;;;;;15.43;3.28;;;;;;;-7.37;71.53;97228.19;5040747;28;20490;-65
2021/12/26 11:35:22;;;;;;;8.50;3.10;;;;;;;-7.34;71.74;97241.00;5039965;28;20045;-66
2021/12/26 11:37:48;;;;;;;8.37;2.73;;;;;;;-7.35;71.34;97234.06;5038284;28;20240;-68
2021/12/26 11:40:41;;;;;;;10.10;3.20;;;;;;;-7.36;71.63;97243.06;5038222;28;20044;-67
2021/12/26 11:44:01;;;;;;;9.80;3.30;;;;;;;-7.33;71.42;97223.25;5041192;28;20387;-66
2021/12/26 11:47:06;;;;;;;10.43;3.17;;;;;;;-7.32;70.99;97232.81;5051137;28;20053;-66
2021/12/26 11:50:07;;;;;;;13.33;2.90;;;;;;;-7.26;70.96;97234.59;5049060;28;20060;-66
2021/12/26 11:53:08;;;;;;;8.80;2.87;;;;;;;-7.29;71.18;97224.41;5029824;28;20053;-65